sensor_id;sensor_type;location;lat;lon;timestamp;temperature;humidity
71047;SHT31;58703;48.978;8.982;2023-07-24T00:00:27;16.24;99.79
71047;SHT31;58703;48.978;8.982;2023-07-24T00:02:56;16.31;99.99
71047;SHT31;58703;48.978;8.982;2023-07-24T00:05:21;16.24;99.99
71047;SHT31;58703;48.978;8.982;2023-07-24T00:07:47;16.16;99.99
71047;SHT31;58703;48.978;8.982;2023-07-24T00:10:13;16.10;99.69
71047;SHT31;58703;48.978;8.982;2023-07-24T00:12:39;16.09;99.77
71047;SHT31;58703;48.978;8.982;2023-07-24T00:15:05;16.07;99.71
71047;SHT31;58703;48.978;8.982;2023-07-24T00:17:31;15.95;99.99
71047;SHT31;58703;48.978;8.982;2023-07-24T00:19:56;15.76;99.99
71047;SHT31;58703;48.978;8.982;2023-07-24T00:22:22;15.76;99.99
71047;SHT31;58703;48.978;8.982;2023-07-24T00:24:48;15.72;99.99
71047;SHT31;58703;48.978;8.982;2023-07-24T00:27:13;15.68;99.99
71047;SHT31;58703;48.978;8.982;2023-07-24T00:29:39;15.63;99.99
71047;SHT31;58703;48.978;8.982;2023-07-24T00:32:05;15.58;99.99
71047;SHT31;58703;48.978;8.982;2023-07-24T00:34:32;15.65;99.99
71047;SHT31;58703;48.978;8.982;2023-07-24T00:36:58;15.65;99.99
71047;SHT31;58703;48.978;8.982;2023-07-24T00:39:24;15.62;99.99
71047;SHT31;58703;48.978;8.982;2023-07-24T00:41:54;15.52;99.99
71047;SHT31;58703;48.978;8.982;2023-07-24T00:44:19;15.51;99.99
71047;SHT31;58703;48.978;8.982;2023-07-24T00:46:45;15.48;99.99
71047;SHT31;58703;48.978;8.982;2023-07-24T00:49:12;15.62;99.99
71047;SHT31;58703;48.978;8.982;2023-07-24T00:51:38;15.66;99.99
71047;SHT31;58703;48.978;8.982;2023-07-24T00:54:04;15.73;99.99
71047;SHT31;58703;48.978;8.982;2023-07-24T00:56:32;15.78;99.99
71047;SHT31;58703;48.978;8.982;2023-07-24T00:58:59;15.75;99.99
71047;SHT31;58703;48.978;8.982;2023-07-24T01:01:25;15.59;99.99
71047;SHT31;58703;48.978;8.982;2023-07-24T01:03:52;15.44;99.99
71047;SHT31;58703;48.978;8.982;2023-07-24T01:06:19;15.55;99.99
71047;SHT31;58703;48.978;8.982;2023-07-24T01:08:45;15.56;99.99
71047;SHT31;58703;48.978;8.982;2023-07-24T01:11:24;15.46;99.99
71047;SHT31;58703;48.978;8.982;2023-07-24T01:14:44;15.32;99.99
71047;SHT31;58703;48.978;8.982;2023-07-24T01:17:14;15.23;99.99
71047;SHT31;58703;48.978;8.982;2023-07-24T01:19:49;15.15;99.99
71047;SHT31;58703;48.978;8.982;2023-07-24T01:22:39;15.12;99.99
71047;SHT31;58703;48.978;8.982;2023-07-24T01:25:25;15.17;99.99
71047;SHT31;58703;48.978;8.982;2023-07-24T01:27:52;15.25;99.99
71047;SHT31;58703;48.978;8.982;2023-07-24T01:30:19;15.25;99.99
71047;SHT31;58703;48.978;8.982;2023-07-24T01:32:48;15.11;99.99
71047;SHT31;58703;48.978;8.982;2023-07-24T01:35:15;15.14;99.99
71047;SHT31;58703;48.978;8.982;2023-07-24T01:37:43;15.01;99.99
71047;SHT31;58703;48.978;8.982;2023-07-24T01:40:11;15.01;99.99
71047;SHT31;58703;48.978;8.982;2023-07-24T01:42:37;15.00;99.99
71047;SHT31;58703;48.978;8.982;2023-07-24T01:45:05;14.88;99.99
71047;SHT31;58703;48.978;8.982;2023-07-24T01:47:33;14.83;99.99
71047;SHT31;58703;48.978;8.982;2023-07-24T01:49:59;14.83;99.99
71047;SHT31;58703;48.978;8.982;2023-07-24T01:52:25;14.81;99.99
71047;SHT31;58703;48.978;8.982;2023-07-24T01:54:51;14.85;99.99
71047;SHT31;58703;48.978;8.982;2023-07-24T01:57:17;14.74;99.99
71047;SHT31;58703;48.978;8.982;2023-07-24T01:59:43;14.74;99.99
71047;SHT31;58703;48.978;8.982;2023-07-24T02:02:10;14.83;99.99
71047;SHT31;58703;48.978;8.982;2023-07-24T02:04:36;14.98;99.99
71047;SHT31;58703;48.978;8.982;2023-07-24T02:07:02;15.15;99.99
71047;SHT31;58703;48.978;8.982;2023-07-24T02:09:29;15.18;99.99
71047;SHT31;58703;48.978;8.982;2023-07-24T02:11:55;15.35;99.99
71047;SHT31;58703;48.978;8.982;2023-07-24T02:14:22;15.42;99.99
71047;SHT31;58703;48.978;8.982;2023-07-24T02:16:48;15.46;99.99
71047;SHT31;58703;48.978;8.982;2023-07-24T02:19:13;15.52;99.99
71047;SHT31;58703;48.978;8.982;2023-07-24T02:21:40;15.59;99.99
71047;SHT31;58703;48.978;8.982;2023-07-24T02:24:07;15.58;99.99
71047;SHT31;58703;48.978;8.982;2023-07-24T02:26:33;15.63;99.99
71047;SHT31;58703;48.978;8.982;2023-07-24T02:28:58;15.70;99.99
71047;SHT31;58703;48.978;8.982;2023-07-24T02:31:26;15.70;99.99
71047;SHT31;58703;48.978;8.982;2023-07-24T02:33:52;15.76;99.99
71047;SHT31;58703;48.978;8.982;2023-07-24T02:36:18;15.78;99.99
71047;SHT31;58703;48.978;8.982;2023-07-24T02:38:43;15.72;99.99
71047;SHT31;58703;48.978;8.982;2023-07-24T02:41:09;15.75;99.99
71047;SHT31;58703;48.978;8.982;2023-07-24T02:43:35;15.76;99.99
71047;SHT31;58703;48.978;8.982;2023-07-24T02:46:01;15.73;99.99
71047;SHT31;58703;48.978;8.982;2023-07-24T02:48:28;15.85;99.99
71047;SHT31;58703;48.978;8.982;2023-07-24T02:50:54;15.90;99.99
71047;SHT31;58703;48.978;8.982;2023-07-24T02:53:20;15.81;99.99
71047;SHT31;58703;48.978;8.982;2023-07-24T02:55:47;15.79;99.99
71047;SHT31;58703;48.978;8.982;2023-07-24T02:58:13;15.81;99.99
71047;SHT31;58703;48.978;8.982;2023-07-24T03:00:40;15.78;99.99
71047;SHT31;58703;48.978;8.982;2023-07-24T03:03:05;15.70;99.99
71047;SHT31;58703;48.978;8.982;2023-07-24T03:05:34;15.72;99.99
71047;SHT31;58703;48.978;8.982;2023-07-24T03:08:00;15.73;99.99
71047;SHT31;58703;48.978;8.982;2023-07-24T03:10:26;15.72;99.99
71047;SHT31;58703;48.978;8.982;2023-07-24T03:12:52;15.70;99.99
71047;SHT31;58703;48.978;8.982;2023-07-24T03:15:19;15.78;99.99
71047;SHT31;58703;48.978;8.982;2023-07-24T03:17:45;15.88;99.99
71047;SHT31;58703;48.978;8.982;2023-07-24T03:20:16;15.89;99.99
71047;SHT31;58703;48.978;8.982;2023-07-24T03:22:43;15.93;99.99
71047;SHT31;58703;48.978;8.982;2023-07-24T03:25:11;15.97;99.99
71047;SHT31;58703;48.978;8.982;2023-07-24T03:27:36;15.96;99.99
71047;SHT31;58703;48.978;8.982;2023-07-24T03:30:03;15.95;99.99
71047;SHT31;58703;48.978;8.982;2023-07-24T03:32:30;16.02;99.99
71047;SHT31;58703;48.978;8.982;2023-07-24T03:34:56;16.03;99.99
71047;SHT31;58703;48.978;8.982;2023-07-24T03:37:22;16.06;99.99
71047;SHT31;58703;48.978;8.982;2023-07-24T03:39:49;16.05;99.99
71047;SHT31;58703;48.978;8.982;2023-07-24T03:42:26;16.03;99.99
71047;SHT31;58703;48.978;8.982;2023-07-24T03:44:52;16.05;99.99
71047;SHT31;58703;48.978;8.982;2023-07-24T03:47:18;16.03;99.99
71047;SHT31;58703;48.978;8.982;2023-07-24T03:49:44;16.05;99.99
71047;SHT31;58703;48.978;8.982;2023-07-24T03:52:09;15.95;99.99
71047;SHT31;58703;48.978;8.982;2023-07-24T03:54:35;15.92;99.99
71047;SHT31;58703;48.978;8.982;2023-07-24T03:57:02;15.93;99.99
71047;SHT31;58703;48.978;8.982;2023-07-24T03:59:28;15.93;99.99
71047;SHT31;58703;48.978;8.982;2023-07-24T04:01:54;15.96;99.99
71047;SHT31;58703;48.978;8.982;2023-07-24T04:04:20;15.99;99.99
71047;SHT31;58703;48.978;8.982;2023-07-24T04:06:46;15.90;99.99
71047;SHT31;58703;48.978;8.982;2023-07-24T04:09:11;15.92;99.99
71047;SHT31;58703;48.978;8.982;2023-07-24T04:11:41;15.93;99.99
71047;SHT31;58703;48.978;8.982;2023-07-24T04:14:07;16.05;99.99
71047;SHT31;58703;48.978;8.982;2023-07-24T04:16:33;16.10;99.99
71047;SHT31;58703;48.978;8.982;2023-07-24T04:18:59;16.24;99.99
71047;SHT31;58703;48.978;8.982;2023-07-24T04:21:25;16.27;99.99
71047;SHT31;58703;48.978;8.982;2023-07-24T04:23:50;16.40;99.99
71047;SHT31;58703;48.978;8.982;2023-07-24T04:26:16;16.41;99.99
71047;SHT31;58703;48.978;8.982;2023-07-24T04:28:43;16.33;99.99
71047;SHT31;58703;48.978;8.982;2023-07-24T04:31:09;16.23;99.99
71047;SHT31;58703;48.978;8.982;2023-07-24T04:33:35;16.30;99.99
71047;SHT31;58703;48.978;8.982;2023-07-24T04:36:01;16.26;99.99
71047;SHT31;58703;48.978;8.982;2023-07-24T04:38:27;16.20;99.99
71047;SHT31;58703;48.978;8.982;2023-07-24T04:40:53;16.24;99.99
71047;SHT31;58703;48.978;8.982;2023-07-24T04:43:20;16.30;99.99
71047;SHT31;58703;48.978;8.982;2023-07-24T04:45:46;16.40;99.99
71047;SHT31;58703;48.978;8.982;2023-07-24T04:48:11;16.40;99.99
71047;SHT31;58703;48.978;8.982;2023-07-24T04:50:37;16.46;99.99
71047;SHT31;58703;48.978;8.982;2023-07-24T04:53:03;16.48;99.99
71047;SHT31;58703;48.978;8.982;2023-07-24T04:55:29;16.54;99.99
71047;SHT31;58703;48.978;8.982;2023-07-24T04:57:55;16.54;99.99
71047;SHT31;58703;48.978;8.982;2023-07-24T05:00:20;16.53;99.99
71047;SHT31;58703;48.978;8.982;2023-07-24T05:02:46;16.46;99.99
71047;SHT31;58703;48.978;8.982;2023-07-24T05:05:12;16.67;99.99
71047;SHT31;58703;48.978;8.982;2023-07-24T05:07:38;16.65;99.99
71047;SHT31;58703;48.978;8.982;2023-07-24T05:10:05;16.71;99.99
71047;SHT31;58703;48.978;8.982;2023-07-24T05:12:31;16.70;99.99
71047;SHT31;58703;48.978;8.982;2023-07-24T05:14:57;16.70;99.99
71047;SHT31;58703;48.978;8.982;2023-07-24T05:17:24;16.70;99.99
71047;SHT31;58703;48.978;8.982;2023-07-24T05:19:49;16.63;99.99
71047;SHT31;58703;48.978;8.982;2023-07-24T05:22:15;16.60;99.99
71047;SHT31;58703;48.978;8.982;2023-07-24T05:24:41;16.54;99.99
71047;SHT31;58703;48.978;8.982;2023-07-24T05:27:07;16.61;99.99
71047;SHT31;58703;48.978;8.982;2023-07-24T05:29:33;16.65;99.99
71047;SHT31;58703;48.978;8.982;2023-07-24T05:31:59;16.81;99.99
71047;SHT31;58703;48.978;8.982;2023-07-24T05:34:25;16.96;99.99
71047;SHT31;58703;48.978;8.982;2023-07-24T05:36:51;16.94;99.99
71047;SHT31;58703;48.978;8.982;2023-07-24T05:39:17;17.01;99.99
71047;SHT31;58703;48.978;8.982;2023-07-24T05:41:44;17.04;99.99
71047;SHT31;58703;48.978;8.982;2023-07-24T05:44:09;17.22;99.99
71047;SHT31;58703;48.978;8.982;2023-07-24T05:46:35;17.33;99.26
71047;SHT31;58703;48.978;8.982;2023-07-24T05:49:01;17.45;99.13
71047;SHT31;58703;48.978;8.982;2023-07-24T05:51:27;17.42;98.79
71047;SHT31;58703;48.978;8.982;2023-07-24T05:53:54;17.49;98.79
71047;SHT31;58703;48.978;8.982;2023-07-24T05:56:19;17.39;99.24
71047;SHT31;58703;48.978;8.982;2023-07-24T05:58:45;17.45;98.95
71047;SHT31;58703;48.978;8.982;2023-07-24T06:01:11;17.47;98.98
71047;SHT31;58703;48.978;8.982;2023-07-24T06:03:37;17.49;99.04
71047;SHT31;58703;48.978;8.982;2023-07-24T06:06:04;17.31;99.54
71047;SHT31;58703;48.978;8.982;2023-07-24T06:08:30;17.26;99.21
71047;SHT31;58703;48.978;8.982;2023-07-24T06:10:56;17.35;98.62
71047;SHT31;58703;48.978;8.982;2023-07-24T06:13:21;17.56;98.33
71047;SHT31;58703;48.978;8.982;2023-07-24T06:15:48;17.62;98.31
71047;SHT31;58703;48.978;8.982;2023-07-24T06:18:15;17.69;97.49
71047;SHT31;58703;48.978;8.982;2023-07-24T06:20:41;17.54;97.83
71047;SHT31;58703;48.978;8.982;2023-07-24T06:23:07;17.70;97.29
71047;SHT31;58703;48.978;8.982;2023-07-24T06:25:33;17.83;97.07
71047;SHT31;58703;48.978;8.982;2023-07-24T06:27:59;17.77;96.40
71047;SHT31;58703;48.978;8.982;2023-07-24T06:30:25;17.90;96.29
71047;SHT31;58703;48.978;8.982;2023-07-24T06:32:51;17.70;95.84
71047;SHT31;58703;48.978;8.982;2023-07-24T06:35:18;17.83;96.55
71047;SHT31;58703;48.978;8.982;2023-07-24T06:37:43;17.97;96.40
71047;SHT31;58703;48.978;8.982;2023-07-24T06:40:09;18.07;94.98
71047;SHT31;58703;48.978;8.982;2023-07-24T06:42:35;18.35;94.61
71047;SHT31;58703;48.978;8.982;2023-07-24T06:45:01;18.40;94.46
71047;SHT31;58703;48.978;8.982;2023-07-24T06:47:27;18.58;94.70
71047;SHT31;58703;48.978;8.982;2023-07-24T06:49:53;18.86;94.98
71047;SHT31;58703;48.978;8.982;2023-07-24T06:52:19;19.00;93.83
71047;SHT31;58703;48.978;8.982;2023-07-24T06:54:45;19.17;92.79
71047;SHT31;58703;48.978;8.982;2023-07-24T06:57:12;19.30;92.51
71047;SHT31;58703;48.978;8.982;2023-07-24T06:59:38;19.24;91.86
71047;SHT31;58703;48.978;8.982;2023-07-24T07:02:03;19.45;92.61
71047;SHT31;58703;48.978;8.982;2023-07-24T07:04:29;19.80;92.24
71047;SHT31;58703;48.978;8.982;2023-07-24T07:06:55;19.84;90.60
71047;SHT31;58703;48.978;8.982;2023-07-24T07:09:21;20.00;89.39
71047;SHT31;58703;48.978;8.982;2023-07-24T07:11:46;19.78;90.98
71047;SHT31;58703;48.978;8.982;2023-07-24T07:14:14;19.71;90.62
71047;SHT31;58703;48.978;8.982;2023-07-24T07:16:40;19.71;89.20
71047;SHT31;58703;48.978;8.982;2023-07-24T07:19:06;19.75;87.84
71047;SHT31;58703;48.978;8.982;2023-07-24T07:21:32;19.94;87.84
71047;SHT31;58703;48.978;8.982;2023-07-24T07:23:57;20.49;87.13
71047;SHT31;58703;48.978;8.982;2023-07-24T07:26:23;20.21;88.94
71047;SHT31;58703;48.978;8.982;2023-07-24T07:28:48;20.17;88.83
71047;SHT31;58703;48.978;8.982;2023-07-24T07:31:14;20.08;88.64
71047;SHT31;58703;48.978;8.982;2023-07-24T07:33:40;20.00;89.06
71047;SHT31;58703;48.978;8.982;2023-07-24T07:36:06;19.56;89.11
71047;SHT31;58703;48.978;8.982;2023-07-24T07:38:32;19.37;91.56
71047;SHT31;58703;48.978;8.982;2023-07-24T07:40:58;19.33;92.31
71047;SHT31;58703;48.978;8.982;2023-07-24T07:43:25;19.29;92.21
71047;SHT31;58703;48.978;8.982;2023-07-24T07:45:50;19.26;92.24
71047;SHT31;58703;48.978;8.982;2023-07-24T07:48:17;19.23;91.17
71047;SHT31;58703;48.978;8.982;2023-07-24T07:50:42;19.03;93.09
71047;SHT31;58703;48.978;8.982;2023-07-24T07:53:09;18.88;94.20
71047;SHT31;58703;48.978;8.982;2023-07-24T07:55:34;18.92;94.83
71047;SHT31;58703;48.978;8.982;2023-07-24T07:58:01;19.05;94.87
71047;SHT31;58703;48.978;8.982;2023-07-24T08:00:27;19.16;94.80
71047;SHT31;58703;48.978;8.982;2023-07-24T08:02:53;19.19;94.15
71047;SHT31;58703;48.978;8.982;2023-07-24T08:05:19;19.27;92.99
71047;SHT31;58703;48.978;8.982;2023-07-24T08:07:45;19.23;93.13
71047;SHT31;58703;48.978;8.982;2023-07-24T08:10:12;19.23;93.85
71047;SHT31;58703;48.978;8.982;2023-07-24T08:12:41;19.19;93.41
71047;SHT31;58703;48.978;8.982;2023-07-24T08:15:08;19.12;93.60
71047;SHT31;58703;48.978;8.982;2023-07-24T08:17:34;19.07;94.75
71047;SHT31;58703;48.978;8.982;2023-07-24T08:20:00;19.03;94.38
71047;SHT31;58703;48.978;8.982;2023-07-24T08:22:26;19.06;94.23
71047;SHT31;58703;48.978;8.982;2023-07-24T08:24:53;19.23;94.42
71047;SHT31;58703;48.978;8.982;2023-07-24T08:27:19;19.36;95.14
71047;SHT31;58703;48.978;8.982;2023-07-24T08:29:46;19.45;93.88
71047;SHT31;58703;48.978;8.982;2023-07-24T08:32:11;19.29;95.59
71047;SHT31;58703;48.978;8.982;2023-07-24T08:34:38;19.12;95.50
71047;SHT31;58703;48.978;8.982;2023-07-24T08:37:05;18.95;95.66
71047;SHT31;58703;48.978;8.982;2023-07-24T08:39:30;19.03;96.80
71047;SHT31;58703;48.978;8.982;2023-07-24T08:41:56;19.06;95.46
71047;SHT31;58703;48.978;8.982;2023-07-24T08:44:25;19.02;96.65
71047;SHT31;58703;48.978;8.982;2023-07-24T08:46:51;18.99;96.84
71047;SHT31;58703;48.978;8.982;2023-07-24T08:49:19;18.99;96.02
71047;SHT31;58703;48.978;8.982;2023-07-24T08:51:46;19.13;95.48
71047;SHT31;58703;48.978;8.982;2023-07-24T08:54:13;19.05;94.07
71047;SHT31;58703;48.978;8.982;2023-07-24T08:56:40;19.26;93.42
71047;SHT31;58703;48.978;8.982;2023-07-24T08:59:07;19.50;92.11
71047;SHT31;58703;48.978;8.982;2023-07-24T09:01:32;19.81;90.17
71047;SHT31;58703;48.978;8.982;2023-07-24T09:03:58;20.11;89.95
71047;SHT31;58703;48.978;8.982;2023-07-24T09:06:26;20.38;87.54
71047;SHT31;58703;48.978;8.982;2023-07-24T09:08:54;20.63;87.13
71047;SHT31;58703;48.978;8.982;2023-07-24T09:11:20;20.77;87.16
71047;SHT31;58703;48.978;8.982;2023-07-24T09:13:47;21.11;84.32
71047;SHT31;58703;48.978;8.982;2023-07-24T09:16:25;21.58;85.45
71047;SHT31;58703;48.978;8.982;2023-07-24T09:18:52;21.75;85.21
71047;SHT31;58703;48.978;8.982;2023-07-24T09:21:29;21.99;83.98
71047;SHT31;58703;48.978;8.982;2023-07-24T09:23:55;22.39;84.57
71047;SHT31;58703;48.978;8.982;2023-07-24T09:26:20;22.60;84.70
71047;SHT31;58703;48.978;8.982;2023-07-24T09:28:53;22.83;84.90
71047;SHT31;58703;48.978;8.982;2023-07-24T09:31:19;22.98;82.46
71047;SHT31;58703;48.978;8.982;2023-07-24T09:33:45;22.93;81.16
71047;SHT31;58703;48.978;8.982;2023-07-24T09:36:12;23.27;82.46
71047;SHT31;58703;48.978;8.982;2023-07-24T09:38:39;23.73;81.04
71047;SHT31;58703;48.978;8.982;2023-07-24T09:41:05;23.86;78.75
71047;SHT31;58703;48.978;8.982;2023-07-24T09:43:33;23.82;78.08
71047;SHT31;58703;48.978;8.982;2023-07-24T09:46:04;23.72;81.23
71047;SHT31;58703;48.978;8.982;2023-07-24T09:48:31;23.73;79.29
71047;SHT31;58703;48.978;8.982;2023-07-24T09:50:58;22.94;79.66
71047;SHT31;58703;48.978;8.982;2023-07-24T09:53:46;22.78;80.11
71047;SHT31;58703;48.978;8.982;2023-07-24T09:56:17;22.69;82.40
71047;SHT31;58703;48.978;8.982;2023-07-24T09:58:44;22.17;83.18
71047;SHT31;58703;48.978;8.982;2023-07-24T10:01:11;21.81;83.42
71047;SHT31;58703;48.978;8.982;2023-07-24T10:03:46;21.84;86.21
71047;SHT31;58703;48.978;8.982;2023-07-24T10:06:13;21.58;84.78
71047;SHT31;58703;48.978;8.982;2023-07-24T10:08:42;21.43;86.20
71047;SHT31;58703;48.978;8.982;2023-07-24T10:11:09;21.41;86.57
71047;SHT31;58703;48.978;8.982;2023-07-24T10:13:37;21.34;86.67
71047;SHT31;58703;48.978;8.982;2023-07-24T10:16:03;21.43;87.82
71047;SHT31;58703;48.978;8.982;2023-07-24T10:18:34;21.30;87.00
71047;SHT31;58703;48.978;8.982;2023-07-24T10:21:04;21.26;89.12
71047;SHT31;58703;48.978;8.982;2023-07-24T10:23:30;21.43;89.06
71047;SHT31;58703;48.978;8.982;2023-07-24T10:26:02;21.33;89.10
71047;SHT31;58703;48.978;8.982;2023-07-24T10:28:34;21.08;90.75
71047;SHT31;58703;48.978;8.982;2023-07-24T10:31:03;20.87;90.55
71047;SHT31;58703;48.978;8.982;2023-07-24T10:33:31;20.82;93.94
71047;SHT31;58703;48.978;8.982;2023-07-24T10:36:05;20.63;93.81
71047;SHT31;58703;48.978;8.982;2023-07-24T10:38:35;20.66;94.05
71047;SHT31;58703;48.978;8.982;2023-07-24T10:41:02;20.69;94.96
71047;SHT31;58703;48.978;8.982;2023-07-24T10:43:29;20.61;94.46
71047;SHT31;58703;48.978;8.982;2023-07-24T10:45:55;20.43;95.02
71047;SHT31;58703;48.978;8.982;2023-07-24T10:48:24;20.22;94.85
71047;SHT31;58703;48.978;8.982;2023-07-24T10:50:51;20.12;96.54
71047;SHT31;58703;48.978;8.982;2023-07-24T10:53:19;20.04;95.76
71047;SHT31;58703;48.978;8.982;2023-07-24T10:55:47;19.92;95.77
71047;SHT31;58703;48.978;8.982;2023-07-24T10:58:13;19.85;96.09
71047;SHT31;58703;48.978;8.982;2023-07-24T11:00:41;19.75;95.74
71047;SHT31;58703;48.978;8.982;2023-07-24T11:03:12;19.64;96.68
71047;SHT31;58703;48.978;8.982;2023-07-24T11:05:42;19.57;96.82
71047;SHT31;58703;48.978;8.982;2023-07-24T11:08:15;19.54;96.86
71047;SHT31;58703;48.978;8.982;2023-07-24T11:10:45;19.51;96.57
71047;SHT31;58703;48.978;8.982;2023-07-24T11:13:14;19.56;96.24
71047;SHT31;58703;48.978;8.982;2023-07-24T11:15:40;19.57;96.36
71047;SHT31;58703;48.978;8.982;2023-07-24T11:18:06;19.61;96.68
71047;SHT31;58703;48.978;8.982;2023-07-24T11:20:38;19.66;96.85
71047;SHT31;58703;48.978;8.982;2023-07-24T11:23:10;19.77;96.99
71047;SHT31;58703;48.978;8.982;2023-07-24T11:25:35;19.77;96.67
71047;SHT31;58703;48.978;8.982;2023-07-24T11:28:02;19.81;96.21
71047;SHT31;58703;48.978;8.982;2023-07-24T11:30:29;19.94;95.95
71047;SHT31;58703;48.978;8.982;2023-07-24T11:32:57;19.92;94.75
71047;SHT31;58703;48.978;8.982;2023-07-24T11:35:25;19.94;95.13
71047;SHT31;58703;48.978;8.982;2023-07-24T11:37:52;19.97;94.93
71047;SHT31;58703;48.978;8.982;2023-07-24T11:40:19;20.11;93.60
71047;SHT31;58703;48.978;8.982;2023-07-24T11:42:47;20.33;91.41
71047;SHT31;58703;48.978;8.982;2023-07-24T11:45:14;20.82;92.40
71047;SHT31;58703;48.978;8.982;2023-07-24T11:47:47;21.17;89.16
71047;SHT31;58703;48.978;8.982;2023-07-24T11:50:14;21.38;88.33
71047;SHT31;58703;48.978;8.982;2023-07-24T11:52:40;21.50;88.74
71047;SHT31;58703;48.978;8.982;2023-07-24T11:55:07;21.58;89.17
71047;SHT31;58703;48.978;8.982;2023-07-24T11:57:34;21.69;88.75
71047;SHT31;58703;48.978;8.982;2023-07-24T12:00:00;21.45;87.06
71047;SHT31;58703;48.978;8.982;2023-07-24T12:02:26;21.30;88.32
71047;SHT31;58703;48.978;8.982;2023-07-24T12:04:57;21.26;89.05
71047;SHT31;58703;48.978;8.982;2023-07-24T12:07:31;21.22;90.68
71047;SHT31;58703;48.978;8.982;2023-07-24T12:09:57;20.97;90.37
71047;SHT31;58703;48.978;8.982;2023-07-24T12:12:23;20.72;90.03
71047;SHT31;58703;48.978;8.982;2023-07-24T12:14:49;20.42;89.96
71047;SHT31;58703;48.978;8.982;2023-07-24T12:17:18;20.10;92.05
71047;SHT31;58703;48.978;8.982;2023-07-24T12:19:45;19.78;93.16
71047;SHT31;58703;48.978;8.982;2023-07-24T12:22:10;19.77;92.96
71047;SHT31;58703;48.978;8.982;2023-07-24T12:24:37;19.64;93.25
71047;SHT31;58703;48.978;8.982;2023-07-24T12:27:03;19.70;94.06
71047;SHT31;58703;48.978;8.982;2023-07-24T12:29:29;19.71;94.48
71047;SHT31;58703;48.978;8.982;2023-07-24T12:31:54;19.73;92.81
71047;SHT31;58703;48.978;8.982;2023-07-24T12:34:21;19.64;94.04
71047;SHT31;58703;48.978;8.982;2023-07-24T12:36:47;19.60;94.24
71047;SHT31;58703;48.978;8.982;2023-07-24T12:39:13;19.71;93.81
71047;SHT31;58703;48.978;8.982;2023-07-24T12:41:39;19.84;94.08
71047;SHT31;58703;48.978;8.982;2023-07-24T12:44:05;19.81;93.75
71047;SHT31;58703;48.978;8.982;2023-07-24T12:46:30;19.74;92.81
71047;SHT31;58703;48.978;8.982;2023-07-24T12:48:57;19.85;93.19
71047;SHT31;58703;48.978;8.982;2023-07-24T12:51:23;19.90;93.76
71047;SHT31;58703;48.978;8.982;2023-07-24T12:53:49;20.07;94.84
71047;SHT31;58703;48.978;8.982;2023-07-24T12:56:15;20.43;95.99
71047;SHT31;58703;48.978;8.982;2023-07-24T12:58:42;20.49;92.49
71047;SHT31;58703;48.978;8.982;2023-07-24T13:01:10;20.53;93.52
71047;SHT31;58703;48.978;8.982;2023-07-24T13:03:36;20.38;91.30
71047;SHT31;58703;48.978;8.982;2023-07-24T13:06:02;20.28;92.80
71047;SHT31;58703;48.978;8.982;2023-07-24T13:08:28;20.31;91.87
71047;SHT31;58703;48.978;8.982;2023-07-24T13:10:55;20.45;92.51
71047;SHT31;58703;48.978;8.982;2023-07-24T13:13:21;20.62;92.44
71047;SHT31;58703;48.978;8.982;2023-07-24T13:15:47;21.04;94.07
71047;SHT31;58703;48.978;8.982;2023-07-24T13:18:16;21.04;91.29
71047;SHT31;58703;48.978;8.982;2023-07-24T13:20:43;21.11;87.84
71047;SHT31;58703;48.978;8.982;2023-07-24T13:23:09;21.26;88.77
71047;SHT31;58703;48.978;8.982;2023-07-24T13:25:37;21.35;87.78
71047;SHT31;58703;48.978;8.982;2023-07-24T13:28:02;21.10;88.00
71047;SHT31;58703;48.978;8.982;2023-07-24T13:30:28;21.06;86.43
71047;SHT31;58703;48.978;8.982;2023-07-24T13:32:53;21.10;87.60
71047;SHT31;58703;48.978;8.982;2023-07-24T13:35:19;21.07;85.81
71047;SHT31;58703;48.978;8.982;2023-07-24T13:37:45;20.83;84.17
71047;SHT31;58703;48.978;8.982;2023-07-24T13:40:11;20.83;85.24
71047;SHT31;58703;48.978;8.982;2023-07-24T13:42:38;20.79;85.21
71047;SHT31;58703;48.978;8.982;2023-07-24T13:45:04;20.79;86.53
71047;SHT31;58703;48.978;8.982;2023-07-24T13:47:29;20.75;82.25
71047;SHT31;58703;48.978;8.982;2023-07-24T13:49:55;20.94;84.69
71047;SHT31;58703;48.978;8.982;2023-07-24T13:52:21;21.20;81.87
71047;SHT31;58703;48.978;8.982;2023-07-24T13:54:48;21.40;79.93
71047;SHT31;58703;48.978;8.982;2023-07-24T13:57:13;21.84;80.72
71047;SHT31;58703;48.978;8.982;2023-07-24T13:59:40;22.19;79.06
71047;SHT31;58703;48.978;8.982;2023-07-24T14:02:06;22.63;77.55
71047;SHT31;58703;48.978;8.982;2023-07-24T14:04:33;23.00;77.06
71047;SHT31;58703;48.978;8.982;2023-07-24T14:07:00;23.14;77.08
71047;SHT31;58703;48.978;8.982;2023-07-24T14:09:25;23.00;78.77
71047;SHT31;58703;48.978;8.982;2023-07-24T14:11:51;22.40;78.76
71047;SHT31;58703;48.978;8.982;2023-07-24T14:14:18;22.57;79.40
71047;SHT31;58703;48.978;8.982;2023-07-24T14:16:43;22.36;77.97
71047;SHT31;58703;48.978;8.982;2023-07-24T14:19:10;22.52;79.00
71047;SHT31;58703;48.978;8.982;2023-07-24T14:21:36;22.47;77.12
71047;SHT31;58703;48.978;8.982;2023-07-24T14:24:01;22.67;78.09
71047;SHT31;58703;48.978;8.982;2023-07-24T14:26:27;23.03;77.50
71047;SHT31;58703;48.978;8.982;2023-07-24T14:28:53;23.06;76.61
71047;SHT31;58703;48.978;8.982;2023-07-24T14:31:19;23.51;76.98
71047;SHT31;58703;48.978;8.982;2023-07-24T14:33:46;23.86;75.48
71047;SHT31;58703;48.978;8.982;2023-07-24T14:36:11;23.93;74.65
71047;SHT31;58703;48.978;8.982;2023-07-24T14:38:37;24.27;75.59
71047;SHT31;58703;48.978;8.982;2023-07-24T14:41:03;24.12;74.69
71047;SHT31;58703;48.978;8.982;2023-07-24T14:43:29;24.46;74.46
71047;SHT31;58703;48.978;8.982;2023-07-24T14:45:54;23.90;75.56
71047;SHT31;58703;48.978;8.982;2023-07-24T14:48:21;23.86;75.77
71047;SHT31;58703;48.978;8.982;2023-07-24T14:50:48;24.14;75.99
71047;SHT31;58703;48.978;8.982;2023-07-24T14:53:13;24.20;76.23
71047;SHT31;58703;48.978;8.982;2023-07-24T14:55:40;24.32;75.31
71047;SHT31;58703;48.978;8.982;2023-07-24T14:58:07;24.54;74.77
71047;SHT31;58703;48.978;8.982;2023-07-24T15:00:33;24.32;75.41
71047;SHT31;58703;48.978;8.982;2023-07-24T15:03:00;24.90;74.24
71047;SHT31;58703;48.978;8.982;2023-07-24T15:05:26;25.72;69.59
71047;SHT31;58703;48.978;8.982;2023-07-24T15:07:52;26.06;68.69
71047;SHT31;58703;48.978;8.982;2023-07-24T15:10:18;25.77;70.94
71047;SHT31;58703;48.978;8.982;2023-07-24T15:12:44;25.85;69.82
71047;SHT31;58703;48.978;8.982;2023-07-24T15:15:09;24.85;72.90
71047;SHT31;58703;48.978;8.982;2023-07-24T15:17:35;24.68;73.28
71047;SHT31;58703;48.978;8.982;2023-07-24T15:20:02;24.60;73.55
71047;SHT31;58703;48.978;8.982;2023-07-24T15:22:28;24.83;72.20
71047;SHT31;58703;48.978;8.982;2023-07-24T15:24:54;24.59;71.86
71047;SHT31;58703;48.978;8.982;2023-07-24T15:27:20;24.27;69.94